createdAt,value
2022-11-16T00:02:35.487Z,55.60
2022-11-16T00:05:38.538Z,57.20
2022-11-16T00:08:43.065Z,51.13
2022-11-16T00:11:46.139Z,60.63
2022-11-16T00:14:49.024Z,53.17
2022-11-16T00:17:52.014Z,54.20
2022-11-16T00:20:54.912Z,56.75
2022-11-16T00:23:57.910Z,53.25
2022-11-16T00:27:00.864Z,56.42
2022-11-16T00:30:04.663Z,48.63
2022-11-16T00:33:08.103Z,50.88
2022-11-16T00:36:11.908Z,47.88
2022-11-16T00:39:15.754Z,49.63
2022-11-16T00:42:18.653Z,47.20
2022-11-16T00:45:21.547Z,47.10
2022-11-16T00:48:24.435Z,46.15
2022-11-16T00:51:27.803Z,42.25
2022-11-16T00:54:30.705Z,44.42
2022-11-16T00:57:36.193Z,40.88
2022-11-16T01:00:40.533Z,42.17
2022-11-16T01:03:43.454Z,42.22
2022-11-16T01:06:46.377Z,42.20
2022-11-16T01:09:49.307Z,38.35
2022-11-16T01:12:53.634Z,38.60
2022-11-16T01:15:56.533Z,35.30
2022-11-16T01:18:59.506Z,39.40
2022-11-16T01:22:02.487Z,36.60
2022-11-16T01:25:05.849Z,40.47
2022-11-16T01:28:08.823Z,38.75
2022-11-16T01:31:21.794Z,39.03
2022-11-16T01:34:27.188Z,42.95
2022-11-16T01:37:35.912Z,39.72
2022-11-16T01:40:39.180Z,42.47
2022-11-16T01:44:04.952Z,44.53
2022-11-16T01:47:15.906Z,38.07
2022-11-16T01:50:19.179Z,39.28
2022-11-16T01:53:24.767Z,44.67
2022-11-16T01:56:32.038Z,42.42
2022-11-16T01:59:44.045Z,41.88
2022-11-16T02:02:51.736Z,45.67
2022-11-16T02:06:14.688Z,42.03
2022-11-16T02:09:55.975Z,43.60
2022-11-16T02:13:11.425Z,45.63
2022-11-16T02:16:48.278Z,45.20
2022-11-16T02:20:30.165Z,46.10
2022-11-16T02:23:41.590Z,43.17
2022-11-16T02:27:18.023Z,46.90
2022-11-16T02:30:21.176Z,43.75
2022-11-16T02:33:25.893Z,45.88
2022-11-16T02:36:28.837Z,45.60
2022-11-16T02:39:32.321Z,43.58
2022-11-16T02:42:38.338Z,40.33
2022-11-16T02:45:47.266Z,43.38
2022-11-16T02:48:53.006Z,40.17
2022-11-16T02:51:56.032Z,42.47
2022-11-16T02:55:01.515Z,46.28
2022-11-16T02:58:09.986Z,41.22
2022-11-16T03:01:25.436Z,46.72
2022-11-16T03:04:35.872Z,43.47
2022-11-16T03:07:45.098Z,41.70
2022-11-16T03:11:12.816Z,39.58
2022-11-16T03:14:18.257Z,40.80
2022-11-16T03:17:34.268Z,43.10
2022-11-16T03:20:37.189Z,38.67
2022-11-16T03:23:40.187Z,40.03
2022-11-16T03:26:57.239Z,35.65
2022-11-16T03:30:11.148Z,41.15
2022-11-16T03:33:19.727Z,40.92
2022-11-16T03:36:32.505Z,39.95
2022-11-16T03:39:37.444Z,38.27
2022-11-16T03:42:41.070Z,39.70
2022-11-16T03:45:45.625Z,38.58
2022-11-16T03:48:48.651Z,41.08
2022-11-16T03:51:59.969Z,43.92
2022-11-16T03:55:05.290Z,39.50
2022-11-16T03:58:09.976Z,40.78
2022-11-16T04:01:14.640Z,44.15
2022-11-16T04:04:36.223Z,39.78
2022-11-16T04:07:58.823Z,42.17
2022-11-16T04:11:20.194Z,43.90
2022-11-16T04:14:43.207Z,40.95
2022-11-16T04:18:07.905Z,43.60
2022-11-16T04:21:38.945Z,39.42
2022-11-16T04:24:43.935Z,38.70
2022-11-16T04:28:05.282Z,39.47
2022-11-16T04:31:27.004Z,40.72
2022-11-16T04:34:58.925Z,40.65
2022-11-16T04:38:02.671Z,42.35
2022-11-16T04:41:35.232Z,38.67
2022-11-16T04:44:56.491Z,38.10
2022-11-16T04:48:02.367Z,42.78
2022-11-16T04:51:08.284Z,36.20
2022-11-16T04:54:11.940Z,38.88
2022-11-16T04:57:14.875Z,36.22
2022-11-16T05:00:19.051Z,36.93
2022-11-16T05:03:22.212Z,37.85
2022-11-16T05:06:25.112Z,41.30
2022-11-16T05:09:28.148Z,39.58
2022-11-16T05:12:31.212Z,41.63
2022-11-16T05:15:37.408Z,37.30
2022-11-16T05:18:40.325Z,40.10
2022-11-16T05:21:43.911Z,35.38
2022-11-16T05:24:47.062Z,38.63
2022-11-16T05:27:50.192Z,42.10
2022-11-16T05:30:53.348Z,35.30
2022-11-16T05:33:59.240Z,37.47
2022-11-16T05:37:02.272Z,36.78
2022-11-16T05:40:07.493Z,37.25
2022-11-16T05:43:17.250Z,35.58
2022-11-16T05:46:29.104Z,35.50
2022-11-16T05:49:36.814Z,31.98
2022-11-16T05:52:39.795Z,33.13
2022-11-16T05:55:45.544Z,34.65
2022-11-16T05:58:48.624Z,34.25
2022-11-16T06:01:51.639Z,30.13
2022-11-16T06:04:54.729Z,34.92
2022-11-16T06:07:58.072Z,34.83
2022-11-16T06:11:04.904Z,34.70
2022-11-16T06:14:09.159Z,34.45
2022-11-16T06:17:14.669Z,34.87
2022-11-16T06:20:18.757Z,33.17
2022-11-16T06:23:23.148Z,37.85
2022-11-16T06:26:27.109Z,36.03
2022-11-16T06:29:32.354Z,33.38
2022-11-16T06:32:36.898Z,37.33
2022-11-16T06:35:41.531Z,32.78
2022-11-16T06:38:44.562Z,32.13
2022-11-16T06:41:48.779Z,35.17
2022-11-16T06:44:51.759Z,32.10
2022-11-16T06:47:58.886Z,33.73
2022-11-16T06:51:02.747Z,33.13
2022-11-16T06:54:06.310Z,33.45
2022-11-16T06:57:09.561Z,32.92
2022-11-16T07:00:14.366Z,37.58
2022-11-16T07:03:17.353Z,34.83
2022-11-16T07:06:20.325Z,35.65
2022-11-16T07:09:23.652Z,35.10
2022-11-16T07:12:27.219Z,33.92
2022-11-16T07:15:33.209Z,32.25
2022-11-16T07:18:37.591Z,33.60
2022-11-16T07:21:41.143Z,35.85
2022-11-16T07:24:49.413Z,36.72
2022-11-16T07:27:54.128Z,35.08
2022-11-16T07:31:03.100Z,35.75
2022-11-16T07:34:07.920Z,34.37
2022-11-16T07:37:19.216Z,37.00
2022-11-16T07:40:25.264Z,41.22
2022-11-16T07:43:31.946Z,37.83
2022-11-16T07:46:48.225Z,39.70
2022-11-16T07:49:52.609Z,39.53
2022-11-16T07:52:57.639Z,38.15
2022-11-16T07:56:00.713Z,40.72
2022-11-16T07:59:06.519Z,43.35
2022-11-16T08:02:13.106Z,37.58
2022-11-16T08:05:17.581Z,40.00
2022-11-16T08:08:21.166Z,42.60
2022-11-16T08:11:25.676Z,46.58
2022-11-16T08:14:29.163Z,49.17
2022-11-16T08:17:32.715Z,40.55
2022-11-16T08:20:36.618Z,43.97
2022-11-16T08:23:44.669Z,42.38
2022-11-16T08:26:50.005Z,37.72
2022-11-16T08:29:53.210Z,39.13
2022-11-16T08:32:57.191Z,38.30
2022-11-16T08:36:08.296Z,39.07
2022-11-16T08:39:15.910Z,38.78
2022-11-16T08:42:19.551Z,37.80
2022-11-16T08:45:25.051Z,36.78
2022-11-16T08:48:29.736Z,47.55
2022-11-16T08:51:33.776Z,41.17
2022-11-16T08:54:41.385Z,42.50
2022-11-16T08:57:44.752Z,41.25
2022-11-16T09:00:49.508Z,43.28
2022-11-16T09:03:53.172Z,42.42
2022-11-16T09:06:56.149Z,39.17
2022-11-16T09:09:59.245Z,40.65
2022-11-16T09:13:03.119Z,41.97
2022-11-16T09:16:06.253Z,44.53
2022-11-16T09:19:09.165Z,45.67
2022-11-16T09:22:12.071Z,50.10
2022-11-16T09:25:15.178Z,41.47
2022-11-16T09:28:21.563Z,44.13
2022-11-16T09:31:28.238Z,58.97
2022-11-16T09:34:31.164Z,56.25
2022-11-16T09:37:34.516Z,40.23
2022-11-16T09:40:39.989Z,39.65
2022-11-16T09:43:51.030Z,40.28
2022-11-16T09:46:58.716Z,48.28
2022-11-16T09:50:03.616Z,38.25
2022-11-16T09:53:32.152Z,38.30
2022-11-16T09:56:37.382Z,38.80
2022-11-16T09:59:51.586Z,37.88
2022-11-16T10:02:57.297Z,36.92
2022-11-16T10:06:05.271Z,47.38
2022-11-16T10:09:11.097Z,41.57
2022-11-16T10:12:25.032Z,41.60
2022-11-16T10:15:33.834Z,44.50
2022-11-16T10:18:52.486Z,44.35
2022-11-16T10:22:19.927Z,39.53
2022-11-16T10:25:23.172Z,41.00
2022-11-16T10:28:44.908Z,42.67
2022-11-16T10:32:05.704Z,44.50
2022-11-16T10:35:30.904Z,39.20
2022-11-16T10:38:33.820Z,41.45
2022-11-16T10:41:44.322Z,41.80
2022-11-16T10:45:07.223Z,36.50
2022-11-16T10:48:47.666Z,39.35
2022-11-16T10:51:50.609Z,39.28
2022-11-16T10:54:53.654Z,37.60
2022-11-16T10:58:01.373Z,35.10
2022-11-16T11:01:09.330Z,38.53
2022-11-16T11:04:28.294Z,37.63
2022-11-16T11:07:33.119Z,39.03
2022-11-16T11:10:38.727Z,35.78
2022-11-16T11:13:41.620Z,36.77
2022-11-16T11:16:44.535Z,36.88
2022-11-16T11:19:47.475Z,36.83
2022-11-16T11:22:56.462Z,40.63
2022-11-16T11:26:00.295Z,37.75
2022-11-16T11:29:06.902Z,39.30
2022-11-16T11:32:22.364Z,38.65
2022-11-16T11:35:31.235Z,38.05
2022-11-16T11:38:34.888Z,39.75
2022-11-16T11:41:42.996Z,41.75
2022-11-16T11:45:03.974Z,39.70
2022-11-16T11:48:25.663Z,39.58
2022-11-16T11:51:33.646Z,45.58
2022-11-16T11:54:45.689Z,41.10
2022-11-16T11:57:50.230Z,42.60
2022-11-16T12:00:57.633Z,41.47
2022-11-16T12:04:22.240Z,38.88
2022-11-16T12:07:56.937Z,41.63
2022-11-16T12:11:25.457Z,47.38
2022-11-16T12:14:58.898Z,37.75
2022-11-16T12:18:23.493Z,37.63
2022-11-16T12:21:47.971Z,38.13
2022-11-16T12:25:27.768Z,36.75
2022-11-16T12:28:33.485Z,42.25
2022-11-16T12:31:44.045Z,51.58
2022-11-16T12:35:03.552Z,43.47
2022-11-16T12:38:36.006Z,45.45
2022-11-16T12:42:03.616Z,50.80
2022-11-16T12:45:32.602Z,44.20
2022-11-16T12:48:42.004Z,40.63
2022-11-16T12:51:49.078Z,43.47
2022-11-16T12:55:27.206Z,50.08
2022-11-16T12:58:55.988Z,55.00
2022-11-16T13:02:23.601Z,46.92
2022-11-16T13:05:53.981Z,43.33
2022-11-16T13:09:24.158Z,40.93
2022-11-16T13:12:27.090Z,42.78
2022-11-16T13:15:34.031Z,44.05
2022-11-16T13:18:39.045Z,43.70
2022-11-16T13:21:51.046Z,41.40
2022-11-16T13:25:20.750Z,39.87
2022-11-16T13:28:40.513Z,39.05
2022-11-16T13:31:51.443Z,41.83
2022-11-16T13:34:54.295Z,43.47
2022-11-16T13:37:57.192Z,41.97
2022-11-16T13:41:29.346Z,44.77
2022-11-16T13:44:32.266Z,43.50
2022-11-16T13:47:35.213Z,42.17
2022-11-16T13:50:41.412Z,45.22
2022-11-16T13:54:43.063Z,44.33
2022-11-16T13:57:25.053Z,55.10
2022-11-16T14:00:29.873Z,59.33
2022-11-16T14:03:38.472Z,56.65
2022-11-16T14:06:44.498Z,64.38
2022-11-16T14:09:48.914Z,55.70
2022-11-16T14:12:55.455Z,53.63
2022-11-16T14:16:17.525Z,43.75
2022-11-16T14:19:47.396Z,46.78
2022-11-16T14:22:59.339Z,43.05
2022-11-16T14:26:22.739Z,43.20
2022-11-16T14:29:31.817Z,41.37
2022-11-16T14:32:53.959Z,42.78
2022-11-16T14:35:56.846Z,40.88
2022-11-16T14:39:14.164Z,41.80
2022-11-16T14:42:48.123Z,41.88
2022-11-16T14:46:09.309Z,46.53
2022-11-16T14:49:17.126Z,44.88
2022-11-16T14:52:28.198Z,38.78
2022-11-16T14:55:31.220Z,43.78
2022-11-16T14:58:34.167Z,43.60
2022-11-16T15:01:39.062Z,46.23
2022-11-16T15:04:41.966Z,43.33
2022-11-16T15:07:45.195Z,44.20
2022-11-16T15:10:52.181Z,39.67
2022-11-16T15:13:55.662Z,46.28
2022-11-16T15:16:59.134Z,47.83
2022-11-16T15:20:04.491Z,47.08
2022-11-16T15:23:13.924Z,48.22
2022-11-16T15:26:21.292Z,39.15
2022-11-16T15:29:24.265Z,40.13
2022-11-16T15:32:27.175Z,49.17
2022-11-16T15:35:32.131Z,58.95
2022-11-16T15:38:36.383Z,71.82
2022-11-16T15:41:39.275Z,65.55
2022-11-16T15:44:42.217Z,47.67
2022-11-16T15:47:47.098Z,47.23
2022-11-16T15:51:06.166Z,43.63
2022-11-16T15:54:29.082Z,43.10
2022-11-16T15:57:31.997Z,39.70
2022-11-16T16:00:37.846Z,36.42
2022-11-16T16:03:46.089Z,39.13
2022-11-16T16:06:54.139Z,40.15
2022-11-16T16:10:12.197Z,37.65
2022-11-16T16:13:25.222Z,39.33
2022-11-16T16:16:38.396Z,34.95
2022-11-16T16:19:45.414Z,36.30
2022-11-16T16:22:48.354Z,37.75
2022-11-16T16:25:51.263Z,39.63
2022-11-16T16:28:54.164Z,46.22
2022-11-16T16:31:57.083Z,47.58
2022-11-16T16:35:07.436Z,44.30
2022-11-16T16:38:12.396Z,48.10
2022-11-16T16:41:23.717Z,44.05
2022-11-16T16:44:27.304Z,40.00
2022-11-16T16:47:30.336Z,44.17
2022-11-16T16:50:33.267Z,41.80
2022-11-16T16:53:36.591Z,45.13
2022-11-16T16:56:39.729Z,46.10
2022-11-16T16:59:45.301Z,46.42
2022-11-16T17:02:48.463Z,44.00
2022-11-16T17:05:53.306Z,46.33
2022-11-16T17:08:56.837Z,44.65
2022-11-16T17:11:59.764Z,45.28
2022-11-16T17:15:02.712Z,45.95
2022-11-16T17:18:05.737Z,44.80
2022-11-16T17:21:09.289Z,44.53
2022-11-16T17:24:12.288Z,41.67
2022-11-16T17:27:15.269Z,44.05
2022-11-16T17:30:18.221Z,45.33
2022-11-16T17:33:21.157Z,49.60
2022-11-16T17:36:24.145Z,53.73
2022-11-16T17:39:27.029Z,53.13
2022-11-16T17:42:29.974Z,49.65
2022-11-16T17:45:32.869Z,48.78
2022-11-16T17:48:35.976Z,44.70
2022-11-16T17:51:38.880Z,41.07
2022-11-16T17:54:41.811Z,38.53
2022-11-16T17:57:44.730Z,43.15
2022-11-16T18:00:50.638Z,41.10
2022-11-16T18:03:53.832Z,36.85
2022-11-16T18:06:56.788Z,35.70
2022-11-16T18:09:59.920Z,34.78
2022-11-16T18:13:03.556Z,37.53
2022-11-16T18:16:27.894Z,36.17
2022-11-16T18:19:30.805Z,36.78
2022-11-16T18:22:33.927Z,33.73
2022-11-16T18:25:36.944Z,39.30
2022-11-16T18:28:39.918Z,38.83
2022-11-16T18:31:42.954Z,39.85
2022-11-16T18:34:45.869Z,40.38
2022-11-16T18:37:48.815Z,36.40
2022-11-16T18:41:11.993Z,35.47
2022-11-16T18:44:15.051Z,39.13
2022-11-16T18:47:17.921Z,34.13
2022-11-16T18:50:26.517Z,33.25
2022-11-16T18:53:30.411Z,34.40
2022-11-16T18:56:35.057Z,29.88
2022-11-16T18:59:38.177Z,29.45
2022-11-16T19:02:41.239Z,26.48
2022-11-16T19:05:44.250Z,30.92
2022-11-16T19:08:53.672Z,28.20
2022-11-16T19:11:58.408Z,28.40
2022-11-16T19:15:01.299Z,27.00
2022-11-16T19:18:21.196Z,24.85
2022-11-16T19:21:24.878Z,26.65
2022-11-16T19:24:27.784Z,25.57
2022-11-16T19:27:32.430Z,27.65
2022-11-16T19:30:35.431Z,26.23
2022-11-16T19:33:38.891Z,29.73
2022-11-16T19:36:41.900Z,24.30
2022-11-16T19:39:44.813Z,25.50
2022-11-16T19:42:47.709Z,23.65
2022-11-16T19:45:50.619Z,25.27
2022-11-16T19:48:53.738Z,33.08
2022-11-16T19:51:56.675Z,44.60
2022-11-16T19:54:59.668Z,31.43
2022-11-16T19:58:02.719Z,27.05
2022-11-16T20:01:14.853Z,29.20
2022-11-16T20:04:17.985Z,32.70
2022-11-16T20:07:21.317Z,31.63
2022-11-16T20:10:24.347Z,35.57
2022-11-16T20:13:27.240Z,31.02
2022-11-16T20:16:38.118Z,32.22
2022-11-16T20:19:41.937Z,27.92
2022-11-16T20:22:45.095Z,33.78
2022-11-16T20:25:48.052Z,30.07
2022-11-16T20:28:52.365Z,29.40
2022-11-16T20:31:55.311Z,31.60
2022-11-16T20:35:01.144Z,30.00
2022-11-16T20:38:04.043Z,29.63
2022-11-16T20:41:17.621Z,30.07
2022-11-16T20:44:23.709Z,29.77
2022-11-16T20:47:26.739Z,31.20
2022-11-16T20:50:29.692Z,29.50
2022-11-16T20:53:33.155Z,28.13
2022-11-16T20:56:36.652Z,25.47
2022-11-16T20:59:39.622Z,24.60
2022-11-16T21:02:42.580Z,27.13
2022-11-16T21:05:46.130Z,22.98
2022-11-16T21:08:49.135Z,24.40
2022-11-16T21:12:24.415Z,27.20
2022-11-16T21:15:27.307Z,24.40
2022-11-16T21:18:30.994Z,26.20
2022-11-16T21:21:34.187Z,23.42
2022-11-16T21:24:37.072Z,24.45
2022-11-16T21:27:39.950Z,25.30
2022-11-16T21:30:42.849Z,24.10
2022-11-16T21:33:46.010Z,26.75
2022-11-16T21:36:49.089Z,25.75
2022-11-16T21:39:51.965Z,24.45
2022-11-16T21:42:54.925Z,23.23
2022-11-16T21:46:03.016Z,24.25
2022-11-16T21:49:07.553Z,22.98
2022-11-16T21:52:10.442Z,23.60
2022-11-16T21:55:14.530Z,22.60
2022-11-16T21:58:17.431Z,26.00
2022-11-16T22:01:20.688Z,24.70
2022-11-16T22:04:42.384Z,24.88
2022-11-16T22:07:45.285Z,22.73
2022-11-16T22:10:52.156Z,22.75
2022-11-16T22:13:55.128Z,22.53
2022-11-16T22:16:58.022Z,22.88
2022-11-16T22:20:00.919Z,22.33
2022-11-16T22:23:03.888Z,23.27
2022-11-16T22:26:15.854Z,25.90
2022-11-16T22:29:18.762Z,24.30
2022-11-16T22:32:21.687Z,23.35
2022-11-16T22:35:24.602Z,23.67
2022-11-16T22:38:27.658Z,22.75
2022-11-16T22:41:30.600Z,22.67
2022-11-16T22:44:33.565Z,25.50
2022-11-16T22:47:36.751Z,26.25
2022-11-16T22:50:39.686Z,30.45
2022-11-16T22:53:42.597Z,32.05
2022-11-16T22:56:47.092Z,28.90
2022-11-16T22:59:50.008Z,25.53
2022-11-16T23:02:52.967Z,26.70
2022-11-16T23:05:55.878Z,24.98
2022-11-16T23:08:58.894Z,24.98
2022-11-16T23:12:20.516Z,26.85
2022-11-16T23:15:41.966Z,25.93
2022-11-16T23:18:44.892Z,27.65
2022-11-16T23:22:06.098Z,28.27
2022-11-16T23:25:28.068Z,27.30
2022-11-16T23:28:30.974Z,25.05
2022-11-16T23:31:33.957Z,25.47
2022-11-16T23:34:36.864Z,25.75
2022-11-16T23:37:56.483Z,25.48
2022-11-16T23:41:19.315Z,28.02
2022-11-16T23:44:22.202Z,26.63
2022-11-16T23:47:25.216Z,25.23
2022-11-16T23:50:28.159Z,25.23
2022-11-16T23:53:31.044Z,27.63
2022-11-16T23:56:33.950Z,24.98
2022-11-16T23:59:36.876Z,28.17
